Terminal Aerodrome Forecast
Issued by NWS Newport/Morehead City, NC

Home | Current Version | Previous Version | Text Only | Print | Product List | Glossary Off
Versions: 1 2 3 4 5 6 7 8 9 10 11 12 13 14 15

000
FTUS42 KMHX 312300
TAFEWN
TAF
KEWN 312320Z 0100/0124 00000KT P6SM BKN250
     FM011400 22004KT P6SM OVC250
     FM011800 22008KT P6SM OVC150=

USA.gov is the U.S. government's official web portal to all federal, state and local government web resources and services.